Time;durP1;ratioP1;P1;durP2;ratioP2;P2;SDS_P1;SDS_P2;PMS_P1;PMS_P2;Temp;Humidity;BMP_temperature;BMP_pressure;BME280_temperature;BME280_humidity;BME280_pressure;Samples;Min_cycle;Max_cycle;Signal;HPM_P1;HPM_P2
2021/05/13 00:02:07;;;;;;;8.55;2.67;;;14.50;99.90;;;;;;5011999;28;20049;-74
2021/05/13 00:04:32;;;;;;;10.68;3.47;;;14.50;99.90;;;;;;5009090;28;20112;-73
2021/05/13 00:06:58;;;;;;;3.80;2.38;;;14.50;99.90;;;;;;5010628;28;20038;-74
2021/05/13 00:09:24;;;;;;;9.45;2.80;;;14.50;99.90;;;;;;5010323;28;20049;-73
2021/05/13 00:11:52;;;;;;;4.70;2.42;;;14.50;99.90;;;;;;5010377;28;20507;-74
2021/05/13 00:14:18;;;;;;;5.35;2.80;;;14.50;99.90;;;;;;5027071;28;20116;-74
2021/05/13 00:16:45;;;;;;;7.40;2.47;;;14.40;99.90;;;;;;5010205;28;20096;-77
2021/05/13 00:19:13;;;;;;;6.35;2.70;;;14.40;99.90;;;;;;5009754;28;20034;-76
2021/05/13 00:21:41;;;;;;;6.65;2.20;;;14.30;99.90;;;;;;5009046;28;20512;-74
2021/05/13 00:24:08;;;;;;;6.63;2.17;;;14.30;99.90;;;;;;5009789;28;20128;-74
2021/05/13 00:26:38;;;;;;;4.30;2.30;;;14.20;99.90;;;;;;5009269;28;20057;-74
2021/05/13 00:29:06;;;;;;;4.47;2.15;;;14.20;99.90;;;;;;5026808;28;20447;-76
2021/05/13 00:31:32;;;;;;;4.22;2.60;;;14.20;99.90;;;;;;5009642;28;20045;-75
2021/05/13 00:34:00;;;;;;;6.55;2.40;;;14.20;99.90;;;;;;5009889;28;20107;-74
2021/05/13 00:36:27;;;;;;;6.85;2.60;;;14.20;99.90;;;;;;5009651;28;20038;-73
2021/05/13 00:38:52;;;;;;;7.22;2.17;;;14.20;99.90;;;;;;5009457;28;20113;-74
2021/05/13 00:41:18;;;;;;;4.97;2.28;;;14.30;99.90;;;;;;5011497;28;20097;-73
2021/05/13 00:43:44;;;;;;;7.55;2.05;;;14.20;99.90;;;;;;5009314;28;20117;-72
2021/05/13 00:46:10;;;;;;;7.38;2.55;;;14.20;99.90;;;;;;5009997;28;20038;-73
2021/05/13 00:48:35;;;;;;;6.10;2.40;;;14.20;99.90;;;;;;5009514;28;20432;-77
2021/05/13 00:51:01;;;;;;;5.63;2.03;;;14.10;99.90;;;;;;5024277;28;20045;-76
2021/05/13 00:53:27;;;;;;;7.43;2.25;;;14.10;99.90;;;;;;5024037;28;20345;-74
2021/05/13 00:55:53;;;;;;;7.03;2.50;;;14.20;99.70;;;;;;5010209;28;20360;-73
2021/05/13 00:58:24;;;;;;;5.00;2.50;;;14.30;99.60;;;;;;5008942;28;20034;-72
2021/05/13 01:01:02;;;;;;;4.97;2.17;;;14.20;98.90;;;;;;5008939;28;20026;-73
2021/05/13 01:03:28;;;;;;;6.93;2.40;;;14.20;98.60;;;;;;5008756;28;20049;-73
2021/05/13 01:05:53;;;;;;;9.10;2.53;;;14.20;98.60;;;;;;5009254;28;20506;-73
2021/05/13 01:08:19;;;;;;;4.40;2.35;;;14.20;98.80;;;;;;5010397;28;20436;-74
2021/05/13 01:10:45;;;;;;;7.43;2.25;;;14.20;98.60;;;;;;5009190;28;20482;-72
2021/05/13 01:13:18;;;;;;;11.20;2.58;;;14.20;98.60;;;;;;5008697;28;20121;-74
2021/05/13 01:15:52;;;;;;;8.32;2.67;;;14.20;98.90;;;;;;5008403;28;20107;-72
2021/05/13 01:18:21;;;;;;;8.95;2.58;;;14.20;98.80;;;;;;5008433;28;20422;-73
2021/05/13 01:20:47;;;;;;;;;;;14.10;99.10;;;;;;5009161;28;20099;-75
2021/05/13 01:23:13;;;;;;;5.57;2.17;;;14.10;99.30;;;;;;5009926;28;19996;-74
2021/05/13 01:25:52;;;;;;;3.65;2.10;;;14.00;99.80;;;;;;5008335;28;20030;-74
2021/05/13 01:28:19;;;;;;;7.38;2.38;;;14.00;99.90;;;;;;5007090;28;20068;-73
2021/05/13 01:30:47;;;;;;;7.57;2.45;;;13.90;99.70;;;;;;5008091;28;20061;-73
2021/05/13 01:33:13;;;;;;;7.15;2.47;;;14.00;99.50;;;;;;5008186;28;20363;-74
2021/05/13 01:35:40;;;;;;;8.35;2.85;;;14.10;98.90;;;;;;5007116;28;20041;-74
2021/05/13 01:38:12;;;;;;;5.57;2.83;;;14.10;98.80;;;;;;5011465;28;20105;-74
2021/05/13 01:40:38;;;;;;;10.85;2.80;;;14.10;98.80;;;;;;5010876;28;20065;-75
2021/05/13 01:43:04;;;;;;;5.97;2.63;;;14.00;98.80;;;;;;5010301;28;20302;-74
2021/05/13 01:45:30;;;;;;;9.98;2.53;;;14.10;98.80;;;;;;5011703;28;20130;-74
2021/05/13 01:48:04;;;;;;;6.88;2.80;;;14.10;98.40;;;;;;4991805;28;566992;-72
2021/05/13 01:50:31;;;;;;;9.25;2.38;;;14.10;98.60;;;;;;5013001;28;20030;-73
2021/05/13 01:52:58;;;;;;;8.00;2.22;;;14.00;98.50;;;;;;5013389;28;20018;-73
2021/05/13 01:55:24;;;;;;;5.68;1.98;;;14.10;98.20;;;;;;5012890;28;20038;-76
2021/05/13 01:57:51;;;;;;;8.52;2.28;;;14.10;98.00;;;;;;5012978;28;20069;-77
2021/05/13 02:00:17;;;;;;;8.20;2.25;;;14.10;98.00;;;;;;5012885;28;20034;-74
2021/05/13 02:02:44;;;;;;;7.03;2.28;;;14.00;97.60;;;;;;5012396;28;20394;-73
2021/05/13 02:05:11;;;;;;;6.78;1.83;;;14.00;97.50;;;;;;5012917;28;20026;-74
2021/05/13 02:07:37;;;;;;;6.18;2.05;;;14.00;97.30;;;;;;5012209;28;20040;-72
2021/05/13 02:10:03;;;;;;;8.68;2.45;;;14.10;97.60;;;;;;5011403;28;20033;-75
2021/05/13 02:12:29;;;;;;;7.03;2.63;;;14.10;97.60;;;;;;5011305;28;20372;-74
2021/05/13 02:14:54;;;;;;;10.77;2.92;;;14.10;97.90;;;;;;5012636;28;20034;-75
2021/05/13 02:17:20;;;;;;;9.15;2.40;;;14.10;98.50;;;;;;5013824;28;20029;-74
2021/05/13 02:19:46;;;;;;;8.25;2.90;;;14.10;98.30;;;;;;5012350;28;20045;-76
2021/05/13 02:22:12;;;;;;;6.50;2.47;;;14.10;97.60;;;;;;5012380;28;20041;-75
2021/05/13 02:24:37;;;;;;;9.55;2.65;;;14.20;97.40;;;;;;5012456;28;20114;-76
2021/05/13 02:27:03;;;;;;;7.25;2.15;;;14.10;97.10;;;;;;5011931;28;20049;-74
2021/05/13 02:29:29;;;;;;;9.77;2.30;;;14.20;97.10;;;;;;5012090;28;20052;-73
2021/05/13 02:31:55;;;;;;;11.02;2.13;;;14.10;96.90;;;;;;5013705;28;20025;-74
2021/05/13 02:34:20;;;;;;;5.57;2.08;;;14.10;97.90;;;;;;5012321;28;20044;-76
2021/05/13 02:36:46;;;;;;;7.70;2.58;;;14.00;98.80;;;;;;5012029;28;20042;-74
2021/05/13 02:39:12;;;;;;;6.63;2.38;;;13.90;99.10;;;;;;5012180;28;20040;-74
2021/05/13 02:41:38;;;;;;;4.32;2.38;;;14.00;98.90;;;;;;5011911;28;20030;-75
2021/05/13 02:44:04;;;;;;;5.85;2.47;;;14.10;98.50;;;;;;5013593;28;20026;-75
2021/05/13 02:46:30;;;;;;;12.00;2.55;;;14.10;98.50;;;;;;5012005;28;20033;-74
2021/05/13 02:48:55;;;;;;;6.55;2.50;;;14.00;98.40;;;;;;5011541;28;20077;-74
2021/05/13 02:51:21;;;;;;;17.30;3.05;;;14.00;98.00;;;;;;5011665;28;20526;-73
2021/05/13 02:53:47;;;;;;;7.25;2.05;;;14.20;97.80;;;;;;5011600;28;20041;-73
2021/05/13 02:56:15;;;;;;;7.78;3.00;;;14.10;97.30;;;;;;5013100;28;20097;-73
2021/05/13 02:58:43;;;;;;;11.73;3.15;;;14.10;97.10;;;;;;5011356;28;20329;-73
2021/05/13 03:01:23;;;;;;;9.83;2.37;;;14.10;96.90;;;;;;5010330;28;20463;-74
2021/05/13 03:03:48;;;;;;;9.75;2.60;;;14.10;97.80;;;;;;5011732;28;20034;-73
2021/05/13 03:06:15;;;;;;;6.85;2.28;;;14.00;98.60;;;;;;5011563;28;20026;-73
2021/05/13 03:08:41;;;;;;;10.80;2.97;;;13.90;98.80;;;;;;5011651;28;20029;-72
2021/05/13 03:11:07;;;;;;;7.10;2.55;;;13.90;99.00;;;;;;5012298;28;20482;-72
2021/05/13 03:13:33;;;;;;;11.93;3.03;;;14.00;98.70;;;;;;5011163;28;20058;-72
2021/05/13 03:15:58;;;;;;;5.30;2.33;;;14.00;98.70;;;;;;5010284;28;20046;-72
2021/05/13 03:18:27;;;;;;;8.38;2.88;;;13.90;98.90;;;;;;5010887;28;20030;-72
2021/05/13 03:23:36;;;;;;;6.57;2.50;;;13.90;98.50;;;;;;5010848;28;20348;-74
2021/05/13 03:26:03;;;;;;;9.63;2.90;;;13.80;98.30;;;;;;5011761;28;20037;-74
2021/05/13 03:28:29;;;;;;;11.15;3.22;;;13.70;98.10;;;;;;5011011;28;20038;-73
2021/05/13 03:30:57;;;;;;;4.80;2.70;;;13.80;97.90;;;;;;5010987;28;20045;-73
2021/05/13 03:33:23;;;;;;;8.48;2.58;;;13.80;97.80;;;;;;5011044;28;20053;-73
2021/05/13 03:35:49;;;;;;;7.88;2.65;;;13.90;98.00;;;;;;5011034;28;20034;-73
2021/05/13 03:38:14;;;;;;;9.38;3.25;;;13.90;98.00;;;;;;5012499;28;20030;-73
2021/05/13 03:40:40;;;;;;;12.13;3.25;;;14.00;97.60;;;;;;5011041;28;20046;-71
2021/05/13 03:43:07;;;;;;;9.38;2.78;;;14.00;97.40;;;;;;5010718;28;20037;-75
2021/05/13 03:45:34;;;;;;;8.57;3.17;;;14.00;97.40;;;;;;5009561;28;20037;-77
2021/05/13 03:48:02;;;;;;;11.55;2.60;;;14.00;97.40;;;;;;5010608;28;20498;-74
2021/05/13 03:50:29;;;;;;;8.70;2.53;;;14.00;97.50;;;;;;5011181;28;20452;-74
2021/05/13 03:52:55;;;;;;;14.57;2.90;;;14.00;97.30;;;;;;5012274;28;20474;-77
2021/05/13 03:55:21;;;;;;;6.68;2.65;;;14.00;97.10;;;;;;5010689;28;20069;-73
2021/05/13 03:57:46;;;;;;;6.82;2.88;;;14.00;97.00;;;;;;5010511;28;20129;-73
2021/05/13 04:00:13;;;;;;;9.27;2.67;;;14.00;96.90;;;;;;5009836;28;20034;-74
2021/05/13 04:02:40;;;;;;;11.10;3.00;;;13.90;96.90;;;;;;5010273;28;20041;-73
2021/05/13 04:05:07;;;;;;;7.35;2.17;;;14.00;96.90;;;;;;5011392;28;20038;-73
2021/05/13 04:07:36;;;;;;;9.05;2.65;;;13.90;96.80;;;;;;5010355;28;20033;-73
2021/05/13 04:10:05;;;;;;;13.73;4.03;;;14.00;96.90;;;;;;5010450;28;20041;-74
2021/05/13 04:12:30;;;;;;;9.63;3.20;;;13.90;96.90;;;;;;5010147;28;20281;-73
2021/05/13 04:14:57;;;;;;;12.70;3.03;;;13.90;97.00;;;;;;5010321;28;20045;-73
2021/05/13 04:17:23;;;;;;;9.93;2.87;;;13.80;97.00;;;;;;5010277;28;20030;-75
2021/05/13 04:19:49;;;;;;;12.60;3.50;;;13.80;97.10;;;;;;5011769;28;20488;-73
2021/05/13 04:22:15;;;;;;;10.45;3.00;;;13.80;97.10;;;;;;5009962;28;20466;-73
2021/05/13 04:24:42;;;;;;;8.13;2.90;;;13.90;97.20;;;;;;5010064;28;20147;-74
2021/05/13 04:27:08;;;;;;;8.27;2.85;;;13.80;97.20;;;;;;5009743;28;20115;-73
2021/05/13 04:29:33;;;;;;;13.18;3.53;;;13.80;97.30;;;;;;5008542;28;20069;-73
2021/05/13 04:31:59;;;;;;;8.23;2.90;;;13.80;97.30;;;;;;5011150;28;20041;-74
2021/05/13 04:34:25;;;;;;;11.30;3.67;;;13.80;97.30;;;;;;5009376;28;20264;-73
2021/05/13 04:36:50;;;;;;;7.35;3.08;;;13.90;97.30;;;;;;5009790;28;20209;-73
2021/05/13 04:39:16;;;;;;;11.25;2.83;;;13.90;97.30;;;;;;5008686;28;20046;-72
2021/05/13 04:41:42;;;;;;;9.40;3.15;;;13.90;97.20;;;;;;5006895;28;20034;-74
2021/05/13 04:44:08;;;;;;;11.73;2.75;;;13.90;97.50;;;;;;4991393;28;20057;-73
2021/05/13 04:46:35;;;;;;;14.30;3.30;;;13.80;97.30;;;;;;5007994;28;20365;-73
2021/05/13 04:51:30;;;;;;;12.73;3.53;;;13.70;97.10;;;;;;5009695;28;20120;-73
2021/05/13 04:53:56;;;;;;;13.77;3.75;;;13.80;97.20;;;;;;5009886;28;20034;-73
2021/05/13 04:56:22;;;;;;;12.23;3.40;;;13.60;97.10;;;;;;5009353;28;20281;-72
2021/05/13 04:58:48;;;;;;;10.25;3.20;;;13.70;97.20;;;;;;5011577;28;20041;-73
2021/05/13 05:01:15;;;;;;;9.27;3.28;;;13.70;97.20;;;;;;5009208;28;20463;-72
2021/05/13 05:03:42;;;;;;;9.85;3.15;;;13.90;97.20;;;;;;5009417;28;20050;-72
2021/05/13 05:06:10;;;;;;;9.73;3.33;;;13.90;97.30;;;;;;5008867;28;20357;-73
2021/05/13 05:08:35;;;;;;;10.90;3.15;;;13.90;97.20;;;;;;5009134;28;20442;-74
2021/05/13 05:11:01;;;;;;;10.73;3.78;;;13.70;97.20;;;;;;5010829;28;20076;-73
2021/05/13 05:13:27;;;;;;;9.65;3.33;;;13.80;97.40;;;;;;5008487;28;20038;-73
2021/05/13 05:15:52;;;;;;;9.55;3.28;;;13.80;97.30;;;;;;5009332;28;20069;-73
2021/05/13 05:18:19;;;;;;;9.70;3.47;;;13.70;97.20;;;;;;5009432;28;20061;-73
2021/05/13 05:20:45;;;;;;;8.50;2.85;;;13.80;97.30;;;;;;5008057;28;20041;-73
2021/05/13 05:23:11;;;;;;;10.30;3.60;;;13.80;97.30;;;;;;5010876;28;20030;-73
2021/05/13 05:25:38;;;;;;;11.05;3.38;;;13.90;97.20;;;;;;5009788;28;20352;-74
2021/05/13 05:28:05;;;;;;;16.52;3.80;;;13.90;96.90;;;;;;5009111;28;20052;-73
2021/05/13 05:30:33;;;;;;;7.97;2.70;;;13.80;97.00;;;;;;5007674;28;20053;-72
2021/05/13 05:33:10;;;;;;;11.43;3.30;;;13.70;97.10;;;;;;5009161;28;20033;-77
2021/05/13 05:35:37;;;;;;;7.82;2.97;;;13.90;97.10;;;;;;5009206;28;20448;-74
2021/05/13 05:38:04;;;;;;;8.23;3.07;;;13.90;96.90;;;;;;5009399;28;20026;-73
2021/05/13 05:40:30;;;;;;;10.73;3.00;;;14.10;97.00;;;;;;5008853;28;20038;-73
2021/05/13 05:42:55;;;;;;;14.43;3.38;;;14.10;96.70;;;;;;5008660;28;20502;-73
2021/05/13 05:45:22;;;;;;;9.65;3.55;;;14.20;96.60;;;;;;5009159;28;20053;-73
2021/05/13 05:47:52;;;;;;;12.68;3.75;;;14.20;96.70;;;;;;5005905;28;20118;-74
2021/05/13 05:50:19;;;;;;;10.55;2.90;;;14.40;96.50;;;;;;5010586;28;20119;-74
2021/05/13 05:52:45;;;;;;;7.10;2.50;;;14.20;96.20;;;;;;5009485;28;20463;-72
2021/05/13 05:55:11;;;;;;;9.85;2.92;;;14.00;96.10;;;;;;5009335;28;20034;-75
2021/05/13 05:57:37;;;;;;;6.55;2.50;;;14.00;96.30;;;;;;5340682;23;20055;-73
2021/05/13 06:03:32;;;;;;;14.32;2.70;;;14.10;96.00;;;;;;5149448;23;20090;-74
2021/05/13 06:05:57;;;;;;;6.97;2.70;;;14.30;95.90;;;;;;4955756;28;20023;-73
2021/05/13 06:08:23;;;;;;;6.32;2.70;;;14.40;95.70;;;;;;4970381;28;20030;-74
2021/05/13 06:10:49;;;;;;;7.80;2.53;;;14.50;95.70;;;;;;4972029;28;20027;-74
2021/05/13 06:13:14;;;;;;;8.50;2.95;;;14.60;95.40;;;;;;4955006;28;20079;-74
2021/05/13 06:15:41;;;;;;;4.90;2.60;;;14.60;95.30;;;;;;4961036;28;20592;-72
2021/05/13 06:18:07;;;;;;;10.95;3.13;;;14.60;95.10;;;;;;4969985;28;20043;-74
2021/05/13 06:20:34;;;;;;;6.10;2.38;;;14.60;95.00;;;;;;4968450;28;20077;-72
2021/05/13 06:25:42;;;;;;;7.43;3.03;;;14.70;94.80;;;;;;5154993;23;20429;-74
2021/05/13 06:28:08;;;;;;;6.78;2.42;;;14.70;94.60;;;;;;4954063;28;20035;-72
2021/05/13 06:30:34;;;;;;;8.32;2.47;;;14.60;94.60;;;;;;4968437;28;20035;-73
2021/05/13 06:32:59;;;;;;;6.65;2.47;;;14.80;94.80;;;;;;4953936;28;20039;-71
2021/05/13 06:35:25;;;;;;;7.88;2.05;;;14.80;94.50;;;;;;4956595;28;20038;-72
2021/05/13 06:37:50;;;;;;;11.30;2.67;;;15.00;94.40;;;;;;4949486;28;20066;-72
2021/05/13 06:40:17;;;;;;;10.32;2.10;;;15.00;94.30;;;;;;4954468;28;20101;-73
2021/05/13 06:42:43;;;;;;;9.10;2.88;;;15.00;94.20;;;;;;4969960;28;20122;-71
2021/05/13 06:45:11;;;;;;;7.00;2.33;;;15.20;94.30;;;;;;4954738;28;20027;-72
2021/05/13 06:47:38;;;;;;;9.27;2.67;;;14.90;93.90;;;;;;4955822;28;20069;-73
2021/05/13 06:50:05;;;;;;;9.48;3.00;;;14.90;94.00;;;;;;4953522;28;20035;-71
2021/05/13 06:52:31;;;;;;;6.38;2.20;;;14.90;94.30;;;;;;4954385;28;20046;-72
2021/05/13 06:54:56;;;;;;;5.60;2.45;;;14.90;94.30;;;;;;4954059;28;20031;-73
2021/05/13 06:57:22;;;;;;;7.40;2.22;;;15.00;94.20;;;;;;4969468;28;20436;-74
2021/05/13 06:59:47;;;;;;;7.80;2.42;;;15.00;93.80;;;;;;4955768;28;20023;-71
2021/05/13 07:02:13;;;;;;;7.18;2.25;;;15.20;93.90;;;;;;4954611;28;20027;-74
2021/05/13 07:04:40;;;;;;;8.55;2.03;;;15.10;93.70;;;;;;4952978;28;20378;-74
2021/05/13 07:07:06;;;;;;;7.28;2.42;;;15.30;93.70;;;;;;4954001;28;20035;-73
2021/05/13 07:09:31;;;;;;;7.63;2.58;;;15.40;93.30;;;;;;4954321;28;20046;-72
2021/05/13 07:11:57;;;;;;;5.38;2.20;;;15.30;93.20;;;;;;4954053;28;20032;-69
2021/05/13 07:14:23;;;;;;;10.48;2.35;;;15.20;93.30;;;;;;4955518;28;20031;-74
2021/05/13 07:16:49;;;;;;;10.52;2.28;;;15.20;93.90;;;;;;4953050;28;20031;-71
2021/05/13 07:19:15;;;;;;;9.10;2.35;;;15.40;93.70;;;;;;4952463;28;20118;-75
2021/05/13 07:21:41;;;;;;;7.32;1.88;;;15.60;93.40;;;;;;4954103;28;20048;-76
2021/05/13 07:27:55;;;;;;;3.78;1.45;;;15.70;93.90;;;;;;4936143;29;20127;-73
2021/05/13 07:33:43;;;;;;;6.05;1.70;;;15.70;92.50;;;;;;4957782;29;20039;-75
2021/05/13 07:39:31;;;;;;;9.82;1.92;;;15.90;92.30;;;;;;4957515;29;20357;-70
2021/05/13 07:45:19;;;;;;;5.30;1.90;;;16.00;92.50;;;;;;4957417;29;20491;-75
2021/05/13 07:51:06;;;;;;;9.55;2.20;;;16.20;92.00;;;;;;4957414;29;20073;-74
2021/05/13 07:56:57;;;;;;;5.85;1.80;;;16.30;91.60;;;;;;4957138;29;20022;-72
2021/05/13 08:02:44;;;;;;;5.25;1.60;;;16.30;91.30;;;;;;4956861;29;20029;-74
2021/05/13 08:08:32;;;;;;;3.67;1.33;;;17.10;90.40;;;;;;4957250;29;20038;-72
2021/05/13 08:14:20;;;;;;;9.02;1.30;;;18.30;87.60;;;;;;4956691;29;20042;-72
2021/05/13 08:20:10;;;;;;;8.98;1.15;;;19.00;84.10;;;;;;4937540;29;20338;-71
2021/05/13 08:25:47;;;;;;;6.03;1.45;;;19.30;82.30;;;;;;4952849;28;20058;-69
2021/05/13 08:28:12;;;;;;;5.03;1.15;;;19.50;82.20;;;;;;4952296;28;20454;-77
2021/05/13 08:30:38;;;;;;;2.47;1.10;;;19.60;80.60;;;;;;4952942;28;20106;-75
2021/05/13 08:33:04;;;;;;;3.47;0.70;;;19.70;78.90;;;;;;4967656;28;20452;-74
2021/05/13 08:35:30;;;;;;;4.85;0.93;;;19.40;77.70;;;;;;4969383;28;20027;-72
2021/05/13 08:37:56;;;;;;;3.80;0.75;;;18.90;76.70;;;;;;4952529;28;20135;-75
2021/05/13 08:40:21;;;;;;;3.67;1.13;;;19.30;77.40;;;;;;4948360;28;20119;-71
2021/05/13 08:42:47;;;;;;;4.53;1.00;;;19.60;76.60;;;;;;4940667;28;20453;-73
2021/05/13 08:45:13;;;;;;;3.90;1.15;;;20.00;75.50;;;;;;4952181;28;20059;-74
2021/05/13 08:47:42;;;;;;;6.40;1.00;;;20.60;75.50;;;;;;4952486;28;20019;-71
2021/05/13 08:50:08;;;;;;;3.80;0.90;;;20.70;73.40;;;;;;4952552;28;20043;-70
2021/05/13 08:52:34;;;;;;;4.20;1.15;;;20.80;72.70;;;;;;4967321;28;20460;-71
2021/05/13 08:55:01;;;;;;;6.47;1.38;;;21.00;71.60;;;;;;4952505;28;20059;-71
2021/05/13 08:57:27;;;;;;;7.27;1.43;;;21.00;70.40;;;;;;4952232;28;20540;-70
2021/05/13 08:59:56;;;;;;;3.65;0.95;;;21.40;70.30;;;;;;4950707;28;20039;-70
2021/05/13 09:02:22;;;;;;;5.25;0.90;;;21.50;69.70;;;;;;4953902;28;20027;-71
2021/05/13 09:04:52;;;;;;;4.70;0.98;;;21.50;69.20;;;;;;4952325;28;20051;-69
2021/05/13 09:07:25;;;;;;;3.13;1.10;;;21.40;67.60;;;;;;4952371;28;20571;-72
2021/05/13 09:09:56;;;;;;;4.32;0.90;;;21.40;69.90;;;;;;4952508;28;20051;-74
2021/05/13 09:12:24;;;;;;;5.88;1.33;;;21.50;69.30;;;;;;4951461;28;20586;-73
2021/05/13 09:15:10;;;;;;;;;;;21.60;69.60;;;;;;4968956;28;20030;-72
2021/05/13 09:17:38;;;;;;;6.78;1.42;;;22.00;68.00;;;;;;4952449;29;19914;-71
2021/05/13 09:20:06;;;;;;;2.72;1.00;;;22.10;67.00;;;;;;4951923;28;20416;-73
2021/05/13 09:22:32;;;;;;;3.70;1.15;;;22.00;66.20;;;;;;4952249;28;20101;-71
2021/05/13 09:25:07;;;;;;;3.28;1.05;;;21.80;65.50;;;;;;4966824;28;20389;-73
2021/05/13 09:27:43;;;;;;;4.28;1.33;;;21.70;65.40;;;;;;4966460;28;20051;-72
2021/05/13 09:30:17;;;;;;;2.03;0.95;;;21.80;65.50;;;;;;4951468;28;20473;-73
2021/05/13 09:32:50;;;;;;;8.43;1.00;;;22.10;64.90;;;;;;4953256;29;20043;-73
2021/05/13 09:35:17;;;;;;;7.22;1.00;;;22.10;63.10;;;;;;4951703;28;20032;-73
2021/05/13 09:37:48;;;;;;;7.82;1.17;;;22.00;62.20;;;;;;4951983;28;20043;-68
2021/05/13 09:40:21;;;;;;;5.57;1.10;;;22.60;61.30;;;;;;4941036;28;20055;-69
2021/05/13 09:42:46;;;;;;;4.45;1.10;;;22.80;59.40;;;;;;4940181;28;20518;-69
2021/05/13 09:45:13;;;;;;;3.60;1.08;;;22.90;58.90;;;;;;4951585;28;20046;-69
2021/05/13 09:47:38;;;;;;;4.95;1.10;;;23.10;57.10;;;;;;4953252;29;20155;-77
2021/05/13 09:50:11;;;;;;;4.20;0.82;;;22.90;59.50;;;;;;4951826;28;20091;-79
2021/05/13 09:52:53;;;;;;;5.07;1.33;;;22.60;59.30;;;;;;4966463;28;20376;-79
2021/05/13 09:55:34;;;;;;;3.80;0.98;;;23.40;57.60;;;;;;4951733;28;20039;-76
2021/05/13 09:58:06;;;;;;;2.80;0.93;;;23.30;56.20;;;;;;4947035;28;20023;-77
2021/05/13 10:00:32;;;;;;;4.68;1.35;;;22.90;56.60;;;;;;4951109;28;20054;-76
2021/05/13 10:02:59;;;;;;;3.75;1.13;;;22.60;57.00;;;;;;4951955;28;20019;-76
2021/05/13 10:05:24;;;;;;;4.93;1.17;;;22.70;57.40;;;;;;4956753;29;20020;-68
2021/05/13 10:07:51;;;;;;;3.75;1.00;;;22.90;57.30;;;;;;4955096;28;20397;-68
2021/05/13 10:10:17;;;;;;;4.70;1.00;;;22.80;56.80;;;;;;4955400;28;20035;-68
2021/05/13 10:12:44;;;;;;;7.00;1.10;;;22.40;56.80;;;;;;4970037;28;20050;-69
2021/05/13 10:15:10;;;;;;;5.97;1.38;;;22.50;55.80;;;;;;4955277;28;20027;-68
2021/05/13 10:17:40;;;;;;;4.07;1.25;;;22.20;54.70;;;;;;4956700;28;20046;-69
2021/05/13 10:20:07;;;;;;;2.92;1.00;;;22.30;55.80;;;;;;4955104;28;20055;-69
2021/05/13 10:22:35;;;;;;;4.95;1.20;;;22.30;56.90;;;;;;4955343;28;20376;-69
2021/05/13 10:25:19;;;;;;;;;;;22.40;57.00;;;;;;4955542;28;20400;-67
2021/05/13 10:27:56;;;;;;;5.18;1.10;;;22.00;56.40;;;;;;4954859;28;19954;-67
2021/05/13 10:30:24;;;;;;;5.50;1.37;;;22.50;56.50;;;;;;4955051;28;20285;-68
2021/05/13 10:33:11;;;;;;;7.20;1.85;;;22.40;56.60;;;;;;4956126;28;20042;-69
2021/05/13 10:35:38;;;;;;;4.03;1.52;;;22.40;57.00;;;;;;4955060;28;20031;-69
2021/05/13 10:38:11;;;;;;;4.10;1.00;;;22.00;56.40;;;;;;4954306;28;20043;-68
2021/05/13 10:43:10;;;;;;;5.15;1.45;;;21.70;56.20;;;;;;4954490;28;20461;-68
2021/05/13 10:45:45;;;;;;;3.67;1.30;;;22.00;56.70;;;;;;4954585;28;20067;-68
2021/05/13 10:48:44;;;;;;;6.13;1.30;;;22.20;57.30;;;;;;4954556;28;20461;-69
2021/05/13 10:51:23;;;;;;;7.00;1.30;;;22.30;56.50;;;;;;4950043;28;20066;-68
2021/05/13 10:53:49;;;;;;;4.95;1.20;;;22.20;55.70;;;;;;4956054;29;20115;-68
2021/05/13 10:56:30;;;;;;;5.07;1.75;;;22.10;56.10;;;;;;4949937;28;20428;-70
2021/05/13 10:59:02;;;;;;;6.20;1.40;;;22.30;57.10;;;;;;4951389;28;20032;-68
2021/05/13 11:01:37;;;;;;;3.53;1.35;;;21.90;55.40;;;;;;4954165;28;20054;-70
2021/05/13 11:04:28;;;;;;;5.53;1.45;;;21.40;55.60;;;;;;4952893;28;20368;-70
2021/05/13 11:06:59;;;;;;;11.43;2.15;;;21.70;57.40;;;;;;4954048;28;20042;-69
2021/05/13 11:09:40;;;;;;;5.35;1.75;;;22.10;57.70;;;;;;4953984;28;20035;-70
2021/05/13 11:12:11;;;;;;;8.15;1.95;;;22.20;57.60;;;;;;4953723;28;20123;-70
2021/05/13 11:20:33;;;;;;;9.05;2.30;;;21.20;57.50;;;;;;4954287;28;20035;-69
2021/05/13 11:23:11;;;;;;;8.95;1.55;;;21.40;57.00;;;;;;4952839;29;20389;-71
2021/05/13 11:25:49;;;;;;;8.80;2.00;;;21.80;57.90;;;;;;4953528;28;20342;-71
2021/05/13 11:28:33;;;;;;;;;;;21.30;56.20;;;;;;4953081;28;20469;-74
2021/05/13 11:31:05;;;;;;;6.20;1.85;;;21.40;55.50;;;;;;4968840;28;20421;-73
2021/05/13 11:33:47;;;;;;;6.15;1.50;;;21.50;56.90;;;;;;4953912;28;20039;-74
2021/05/13 11:36:15;;;;;;;7.50;1.73;;;21.70;56.60;;;;;;4953905;28;20352;-75
2021/05/13 11:38:41;;;;;;;7.88;1.42;;;21.10;55.60;;;;;;4954773;28;20023;-70
2021/05/13 11:41:07;;;;;;;7.10;1.60;;;21.30;55.30;;;;;;4953380;28;20035;-67
2021/05/13 11:43:35;;;;;;;13.18;1.60;;;21.50;55.10;;;;;;4953640;28;20432;-69
2021/05/13 11:46:09;;;;;;;7.22;1.92;;;21.60;56.00;;;;;;4953303;28;20512;-69
2021/05/13 11:48:37;;;;;;;9.00;1.48;;;21.60;54.90;;;;;;4968461;28;20090;-69
2021/05/13 11:51:07;;;;;;;8.88;2.00;;;21.50;54.20;;;;;;4968176;28;20058;-70
2021/05/13 11:53:35;;;;;;;6.75;1.45;;;21.50;54.40;;;;;;4954747;29;20101;-69
2021/05/13 11:56:01;;;;;;;4.78;1.52;;;21.30;54.60;;;;;;4953098;28;20038;-70
2021/05/13 11:58:45;;;;;;;8.07;1.90;;;21.20;54.50;;;;;;4953109;28;20130;-69
2021/05/13 12:01:22;;;;;;;9.32;1.83;;;21.60;54.90;;;;;;4953065;28;20057;-71
2021/05/13 12:03:58;;;;;;;6.55;1.88;;;21.70;55.20;;;;;;4952842;28;20070;-69
2021/05/13 12:06:25;;;;;;;6.95;2.15;;;21.70;56.00;;;;;;4953214;28;20105;-71
2021/05/13 12:08:50;;;;;;;7.85;1.92;;;21.60;55.60;;;;;;4954376;29;20027;-75
2021/05/13 12:11:27;;;;;;;8.70;2.20;;;21.30;54.80;;;;;;4952392;28;20102;-72
2021/05/13 12:13:55;;;;;;;6.60;1.48;;;21.00;55.10;;;;;;4952379;28;20035;-75
2021/05/13 12:16:23;;;;;;;4.72;2.15;;;20.70;54.40;;;;;;4952587;28;20134;-74
2021/05/13 12:18:51;;;;;;;7.88;1.35;;;20.30;54.80;;;;;;4952941;28;20039;-73
2021/05/13 12:21:19;;;;;;;8.57;2.20;;;20.50;56.70;;;;;;4952289;28;20032;-73
2021/05/13 12:23:46;;;;;;;4.97;1.75;;;20.90;56.50;;;;;;4954105;28;20066;-72
2021/05/13 12:26:19;;;;;;;8.45;1.50;;;21.00;55.90;;;;;;4952634;28;20085;-73
2021/05/13 12:28:45;;;;;;;5.30;1.60;;;21.10;55.20;;;;;;4952506;28;20051;-73
2021/05/13 12:31:26;;;;;;;5.55;1.52;;;20.60;54.80;;;;;;4952336;28;20053;-73
2021/05/13 12:33:52;;;;;;;5.78;1.35;;;20.70;56.00;;;;;;4952722;28;20043;-73
2021/05/13 12:36:18;;;;;;;6.72;1.33;;;20.70;54.90;;;;;;4952883;28;20090;-76
2021/05/13 12:38:45;;;;;;;5.88;1.85;;;20.60;55.30;;;;;;4954027;29;20027;-74
2021/05/13 12:41:16;;;;;;;4.97;1.45;;;20.70;56.40;;;;;;4952930;28;20058;-75
2021/05/13 12:43:43;;;;;;;12.93;2.13;;;20.40;56.60;;;;;;4952374;28;20097;-75
2021/05/13 12:46:25;;;;;;;6.87;1.87;;;20.30;57.30;;;;;;4952434;28;20039;-73
2021/05/13 12:48:52;;;;;;;4.90;1.80;;;20.40;57.40;;;;;;4952588;28;20492;-74
2021/05/13 12:51:25;;;;;;;5.82;2.17;;;20.70;59.10;;;;;;4948100;28;20044;-72
2021/05/13 12:53:51;;;;;;;5.32;1.65;;;20.90;57.30;;;;;;4934465;29;20028;-74
2021/05/13 12:56:31;;;;;;;7.25;2.10;;;21.00;57.50;;;;;;4952438;28;20449;-75
2021/05/13 12:59:06;;;;;;;4.40;1.65;;;21.10;57.20;;;;;;4952466;28;20465;-78
2021/05/13 13:01:33;;;;;;;7.63;2.00;;;21.10;57.10;;;;;;4952596;28;20046;-76
2021/05/13 13:03:59;;;;;;;5.10;1.90;;;21.10;57.30;;;;;;4952179;28;20376;-75
2021/05/13 13:06:24;;;;;;;5.32;1.88;;;21.10;57.20;;;;;;4952407;28;20043;-71
2021/05/13 13:08:52;;;;;;;5.25;1.52;;;21.10;58.00;;;;;;4952493;28;20042;-76
2021/05/13 13:11:59;;;;;;;5.28;1.63;;;21.00;57.30;;;;;;4952567;28;20043;-78
2021/05/13 13:14:26;;;;;;;8.40;2.17;;;20.90;56.60;;;;;;4912128;29;20482;-78
2021/05/13 13:16:51;;;;;;;4.70;1.90;;;20.70;56.10;;;;;;4946175;28;20361;-79
2021/05/13 13:19:17;;;;;;;3.60;1.52;;;20.40;57.60;;;;;;4952046;28;20501;-73
2021/05/13 13:22:01;;;;;;;4.43;1.70;;;20.50;58.90;;;;;;4952245;28;20477;-75
2021/05/13 13:24:28;;;;;;;7.63;1.23;;;20.90;58.70;;;;;;4951940;28;20047;-71
2021/05/13 13:27:01;;;;;;;4.80;0.95;;;21.10;56.60;;;;;;4951117;28;20023;-69
2021/05/13 13:29:28;;;;;;;4.38;1.27;;;21.20;54.50;;;;;;4953168;28;20058;-75
2021/05/13 13:32:12;;;;;;;3.17;1.40;;;21.10;53.60;;;;;;4952324;28;20051;-73
2021/05/13 13:34:39;;;;;;;3.28;1.13;;;21.00;55.50;;;;;;4954578;28;20058;-72
2021/05/13 13:37:05;;;;;;;3.22;1.15;;;21.20;56.00;;;;;;4955957;28;20035;-71
2021/05/13 13:39:31;;;;;;;5.07;1.00;;;21.20;54.70;;;;;;4956296;28;20044;-71
2021/05/13 13:41:58;;;;;;;4.57;1.17;;;21.10;54.50;;;;;;4956145;28;20066;-71
2021/05/13 13:44:24;;;;;;;4.45;1.08;;;21.30;54.30;;;;;;4957165;29;20027;-70
2021/05/13 13:46:51;;;;;;;3.70;1.17;;;21.10;52.80;;;;;;4956096;28;20050;-71
2021/05/13 13:49:16;;;;;;;6.63;0.97;;;21.20;53.20;;;;;;4955694;28;20348;-74